SWA2677 KLAS-KOAK
Flight info
| Callsign | SWA2677 |
|---|---|
| Flight time | 1h 2m |
| Altitude | 34000 |
| Route | JOHKR5 KENNO RUSME OAKES3 |
| Aircraft | B737/M-SADE2E3GIJ4RWZ/LB1D1 |
Departure
| Time | 2026-05-06 01:52 |
|---|---|
| Airport | Harry Reid International Airport (KLAS) |
Arrival
| Time | 2026-05-06 02:54 |
|---|---|
| Airport | San Francisco Bay Oakland International Airport (KOAK) |
| Time | Latitude | Longitude | Altitude | Speed | Heading |
|---|---|---|---|---|---|
| 2026-05-06 01:15 | 36.08155 | -115.14637 | 2087 ft | 0 kts | 254° |
| 2026-05-06 01:42 | 36.08157 | -115.14629 | 2096 ft | 3 kts | 254° |
| 2026-05-06 01:42 | 36.08164 | -115.14600 | 2096 ft | 3 kts | 252° |
| 2026-05-06 01:42 | 36.08171 | -115.14573 | 2096 ft | 3 kts | 250° |
| 2026-05-06 01:42 | 36.08178 | -115.14552 | 2096 ft | 0 kts | 248° |
| 2026-05-06 01:45 | 36.08176 | -115.14555 | 2096 ft | 3 kts | 238° |
| 2026-05-06 01:46 | 36.08139 | -115.14547 | 2096 ft | 7 kts | 142° |
| 2026-05-06 01:46 | 36.08102 | -115.14513 | 2096 ft | 7 kts | 145° |
| 2026-05-06 01:46 | 36.08049 | -115.14485 | 2096 ft | 10 kts | 164° |
| 2026-05-06 01:46 | 36.07979 | -115.14467 | 2095 ft | 11 kts | 168° |
| 2026-05-06 01:47 | 36.07907 | -115.14449 | 2095 ft | 10 kts | 168° |
| 2026-05-06 01:47 | 36.07841 | -115.14421 | 2095 ft | 10 kts | 134° |
| 2026-05-06 01:47 | 36.07829 | -115.14309 | 2095 ft | 15 kts | 91° |
| 2026-05-06 01:47 | 36.07826 | -115.14178 | 2094 ft | 15 kts | 91° |
| 2026-05-06 01:48 | 36.07826 | -115.14054 | 2093 ft | 14 kts | 88° |
| 2026-05-06 01:48 | 36.07827 | -115.13934 | 2092 ft | 14 kts | 91° |
| 2026-05-06 01:48 | 36.07826 | -115.13821 | 2092 ft | 13 kts | 90° |
| 2026-05-06 01:48 | 36.07826 | -115.13709 | 2091 ft | 13 kts | 90° |
| 2026-05-06 01:49 | 36.07826 | -115.13601 | 2091 ft | 12 kts | 88° |
| 2026-05-06 01:49 | 36.07829 | -115.13490 | 2090 ft | 15 kts | 88° |
| 2026-05-06 01:49 | 36.07828 | -115.13329 | 2088 ft | 21 kts | 91° |
| 2026-05-06 01:49 | 36.07829 | -115.13151 | 2083 ft | 20 kts | 90° |
| 2026-05-06 01:50 | 36.07829 | -115.12979 | 2076 ft | 20 kts | 90° |
| 2026-05-06 01:50 | 36.07830 | -115.12813 | 2069 ft | 19 kts | 90° |
| 2026-05-06 01:50 | 36.07830 | -115.12639 | 2062 ft | 22 kts | 90° |
| 2026-05-06 01:50 | 36.07830 | -115.12434 | 2056 ft | 25 kts | 90° |
| 2026-05-06 01:51 | 36.07821 | -115.12256 | 2052 ft | 20 kts | 113° |
| 2026-05-06 01:51 | 36.07735 | -115.12128 | 2047 ft | 19 kts | 146° |
| 2026-05-06 01:51 | 36.07637 | -115.12152 | 2049 ft | 11 kts | 260° |
| 2026-05-06 01:51 | 36.07637 | -115.12340 | 2051 ft | 49 kts | 270° |
| 2026-05-06 01:52 | 36.07634 | -115.13066 | 2080 ft | 118 kts | 271° |
| 2026-05-06 01:52 | 36.07644 | -115.14330 | 2119 ft | 172 kts | 266° |
| 2026-05-06 01:52 | 36.07669 | -115.15816 | 2723 ft | 175 kts | 268° |
| 2026-05-06 01:52 | 36.07680 | -115.17351 | 3440 ft | 188 kts | 270° |
| 2026-05-06 01:53 | 36.07681 | -115.19101 | 3709 ft | 216 kts | 270° |
| 2026-05-06 01:53 | 36.07616 | -115.21061 | 4143 ft | 233 kts | 262° |
| 2026-05-06 01:53 | 36.07318 | -115.23050 | 4931 ft | 239 kts | 252° |
| 2026-05-06 01:53 | 36.06475 | -115.24830 | 5765 ft | 241 kts | 232° |
| 2026-05-06 01:54 | 36.05392 | -115.26467 | 6513 ft | 254 kts | 227° |
| 2026-05-06 01:54 | 36.03805 | -115.27579 | 7037 ft | 275 kts | 201° |
| 2026-05-06 01:54 | 36.01957 | -115.28308 | 7654 ft | 281 kts | 200° |
| 2026-05-06 01:54 | 36.00106 | -115.29076 | 8004 ft | 284 kts | 200° |
| 2026-05-06 01:55 | 35.98267 | -115.29944 | 8081 ft | 288 kts | 207° |
| 2026-05-06 01:55 | 35.96479 | -115.31114 | 8850 ft | 295 kts | 210° |
| 2026-05-06 01:55 | 35.94661 | -115.32343 | 9908 ft | 297 kts | 209° |
| 2026-05-06 01:55 | 35.92824 | -115.33559 | 10712 ft | 305 kts | 209° |
| 2026-05-06 01:56 | 35.90962 | -115.34800 | 10975 ft | 303 kts | 212° |
| 2026-05-06 01:56 | 35.89421 | -115.36577 | 11557 ft | 307 kts | 240° |
| 2026-05-06 01:56 | 35.88599 | -115.38994 | 12484 ft | 309 kts | 262° |
| 2026-05-06 01:56 | 35.88495 | -115.41638 | 13434 ft | 310 kts | 274° |
| 2026-05-06 01:57 | 35.88568 | -115.44323 | 14218 ft | 317 kts | 276° |
| 2026-05-06 01:57 | 35.88659 | -115.47019 | 15063 ft | 321 kts | 275° |
| 2026-05-06 01:57 | 35.88737 | -115.49783 | 15952 ft | 325 kts | 275° |
| 2026-05-06 01:57 | 35.88801 | -115.52592 | 16803 ft | 330 kts | 274° |
| 2026-05-06 01:58 | 35.88859 | -115.55441 | 17611 ft | 335 kts | 274° |
| 2026-05-06 01:58 | 35.88916 | -115.58368 | 18162 ft | 351 kts | 274° |
| 2026-05-06 01:58 | 35.88977 | -115.61452 | 18342 ft | 374 kts | 274° |
| 2026-05-06 01:58 | 35.89040 | -115.64722 | 18808 ft | 386 kts | 273° |
| 2026-05-06 01:59 | 35.89099 | -115.68051 | 19565 ft | 390 kts | 274° |
| 2026-05-06 01:59 | 35.89159 | -115.71415 | 20300 ft | 395 kts | 274° |
| 2026-05-06 01:59 | 35.89219 | -115.74827 | 20989 ft | 401 kts | 274° |
| 2026-05-06 01:59 | 35.89280 | -115.78294 | 21659 ft | 407 kts | 274° |
| 2026-05-06 02:00 | 35.89342 | -115.81810 | 22341 ft | 413 kts | 274° |
| 2026-05-06 02:00 | 35.89403 | -115.85373 | 23006 ft | 419 kts | 274° |
| 2026-05-06 02:00 | 35.89464 | -115.88985 | 23625 ft | 424 kts | 275° |
| 2026-05-06 02:00 | 35.89889 | -115.92576 | 24109 ft | 423 kts | 293° |
| 2026-05-06 02:01 | 35.91171 | -115.95789 | 24650 ft | 416 kts | 311° |
| 2026-05-06 02:01 | 35.93043 | -115.98422 | 25238 ft | 412 kts | 320° |
| 2026-05-06 02:01 | 35.95116 | -116.00961 | 25783 ft | 416 kts | 322° |
| 2026-05-06 02:01 | 35.97175 | -116.03421 | 26286 ft | 420 kts | 323° |
| 2026-05-06 02:02 | 35.99288 | -116.05944 | 26849 ft | 424 kts | 323° |
| 2026-05-06 02:02 | 36.01413 | -116.08504 | 27400 ft | 428 kts | 323° |
| 2026-05-06 02:02 | 36.03469 | -116.11019 | 27851 ft | 433 kts | 323° |
| 2026-05-06 02:02 | 36.05603 | -116.13662 | 28443 ft | 433 kts | 323° |
| 2026-05-06 02:03 | 36.07723 | -116.16299 | 29165 ft | 431 kts | 323° |
| 2026-05-06 02:03 | 36.09837 | -116.18921 | 29868 ft | 430 kts | 324° |
| 2026-05-06 02:03 | 36.11950 | -116.21541 | 30423 ft | 429 kts | 324° |
| 2026-05-06 02:03 | 36.14053 | -116.24153 | 30982 ft | 428 kts | 324° |
| 2026-05-06 02:04 | 36.16157 | -116.26763 | 31493 ft | 428 kts | 324° |
| 2026-05-06 02:04 | 36.18258 | -116.29374 | 32004 ft | 428 kts | 324° |
| 2026-05-06 02:04 | 36.20353 | -116.31983 | 32549 ft | 426 kts | 324° |
| 2026-05-06 02:04 | 36.22439 | -116.34581 | 33073 ft | 425 kts | 324° |
| 2026-05-06 02:05 | 36.24524 | -116.37179 | 33558 ft | 425 kts | 324° |
| 2026-05-06 02:05 | 36.26620 | -116.39790 | 33824 ft | 428 kts | 323° |
| 2026-05-06 02:05 | 36.30857 | -116.44994 | 33797 ft | 426 kts | 326° |
| 2026-05-06 02:06 | 36.35120 | -116.50023 | 33809 ft | 422 kts | 326° |
| 2026-05-06 02:06 | 36.39345 | -116.55018 | 33817 ft | 423 kts | 326° |
| 2026-05-06 02:07 | 36.43606 | -116.60096 | 33821 ft | 425 kts | 326° |
| 2026-05-06 02:07 | 36.47904 | -116.65152 | 33808 ft | 424 kts | 327° |
| 2026-05-06 02:08 | 36.52265 | -116.70043 | 33809 ft | 421 kts | 328° |
| 2026-05-06 02:08 | 36.55877 | -116.74099 | 33813 ft | 420 kts | 327° |
| 2026-05-06 02:09 | 36.60881 | -116.79842 | 33809 ft | 420 kts | 327° |
| 2026-05-06 02:09 | 36.65195 | -116.84734 | 33805 ft | 418 kts | 327° |
| 2026-05-06 02:10 | 36.69452 | -116.89649 | 33813 ft | 417 kts | 325° |
| 2026-05-06 02:10 | 36.73737 | -116.94435 | 33821 ft | 408 kts | 330° |
| 2026-05-06 02:11 | 36.77671 | -116.97408 | 33848 ft | 392 kts | 344° |
| 2026-05-06 02:11 | 36.82623 | -117.00338 | 33813 ft | 395 kts | 343° |
| 2026-05-06 02:12 | 36.87536 | -117.03394 | 33826 ft | 395 kts | 342° |
| 2026-05-06 02:12 | 36.92431 | -117.06551 | 33839 ft | 396 kts | 342° |
| 2026-05-06 02:13 | 36.97354 | -117.09775 | 33847 ft | 406 kts | 342° |
| 2026-05-06 02:13 | 36.99830 | -117.11639 | 33826 ft | 429 kts | 330° |
| 2026-05-06 02:13 | 37.01983 | -117.14363 | 33846 ft | 452 kts | 316° |
| 2026-05-06 02:14 | 37.03738 | -117.17725 | 33829 ft | 473 kts | 304° |
| 2026-05-06 02:14 | 37.04987 | -117.21544 | 33857 ft | 483 kts | 298° |
| 2026-05-06 02:14 | 37.07178 | -117.29533 | 33840 ft | 486 kts | 296° |
| 2026-05-06 02:15 | 37.09321 | -117.37575 | 33839 ft | 485 kts | 296° |
| 2026-05-06 02:15 | 37.11506 | -117.45556 | 33837 ft | 483 kts | 297° |
| 2026-05-06 02:16 | 37.13707 | -117.53458 | 33839 ft | 481 kts | 297° |
| 2026-05-06 02:16 | 37.15921 | -117.61390 | 33844 ft | 481 kts | 297° |
| 2026-05-06 02:17 | 37.18124 | -117.69313 | 33846 ft | 480 kts | 297° |
| 2026-05-06 02:17 | 37.20296 | -117.77157 | 33851 ft | 477 kts | 297° |
| 2026-05-06 02:18 | 37.22468 | -117.85029 | 33855 ft | 477 kts | 297° |
| 2026-05-06 02:18 | 37.24634 | -117.92900 | 33861 ft | 478 kts | 297° |
| 2026-05-06 02:19 | 37.26801 | -118.00793 | 33859 ft | 478 kts | 297° |
| 2026-05-06 02:19 | 37.28960 | -118.08691 | 33863 ft | 478 kts | 297° |
| 2026-05-06 02:20 | 37.32184 | -118.20523 | 33944 ft | 480 kts | 297° |
| 2026-05-06 02:21 | 37.34340 | -118.28457 | 33967 ft | 479 kts | 297° |
| 2026-05-06 02:21 | 37.36483 | -118.36384 | 33953 ft | 479 kts | 296° |
| 2026-05-06 02:22 | 37.38625 | -118.44323 | 33968 ft | 479 kts | 296° |
| 2026-05-06 02:22 | 37.40759 | -118.52258 | 33957 ft | 479 kts | 296° |
| 2026-05-06 02:23 | 37.42893 | -118.60215 | 33939 ft | 479 kts | 296° |
| 2026-05-06 02:23 | 37.44916 | -118.67781 | 34004 ft | 480 kts | 296° |
| 2026-05-06 02:24 | 37.47035 | -118.75736 | 34047 ft | 478 kts | 296° |
| 2026-05-06 02:24 | 37.49119 | -118.83612 | 34087 ft | 477 kts | 296° |
| 2026-05-06 02:25 | 37.51216 | -118.91518 | 34099 ft | 474 kts | 296° |
| 2026-05-06 02:25 | 37.53304 | -118.99401 | 34054 ft | 477 kts | 296° |
| 2026-05-06 02:26 | 37.55389 | -119.07316 | 33985 ft | 473 kts | 296° |
| 2026-05-06 02:26 | 37.57453 | -119.15183 | 33990 ft | 472 kts | 296° |
| 2026-05-06 02:27 | 37.59500 | -119.23006 | 33977 ft | 471 kts | 296° |
| 2026-05-06 02:27 | 37.61541 | -119.30828 | 34007 ft | 470 kts | 295° |
| 2026-05-06 02:28 | 37.63584 | -119.38679 | 34022 ft | 471 kts | 295° |
| 2026-05-06 02:28 | 37.65630 | -119.46564 | 34010 ft | 472 kts | 295° |
| 2026-05-06 02:29 | 37.67670 | -119.54457 | 34013 ft | 474 kts | 295° |
| 2026-05-06 02:29 | 37.69714 | -119.62393 | 34024 ft | 475 kts | 295° |
| 2026-05-06 02:30 | 37.71758 | -119.70348 | 34035 ft | 477 kts | 295° |
| 2026-05-06 02:30 | 37.73802 | -119.78330 | 34031 ft | 478 kts | 295° |
| 2026-05-06 02:31 | 37.75842 | -119.86334 | 34033 ft | 477 kts | 295° |
| 2026-05-06 02:31 | 37.77855 | -119.94251 | 33942 ft | 477 kts | 295° |
| 2026-05-06 02:31 | 37.78878 | -119.98276 | 33129 ft | 481 kts | 295° |
| 2026-05-06 02:32 | 37.79893 | -120.02290 | 32350 ft | 478 kts | 294° |
| 2026-05-06 02:32 | 37.80899 | -120.06277 | 31829 ft | 470 kts | 294° |
| 2026-05-06 02:32 | 37.81891 | -120.10211 | 31218 ft | 466 kts | 294° |
| 2026-05-06 02:32 | 37.82857 | -120.14044 | 30630 ft | 462 kts | 294° |
| 2026-05-06 02:33 | 37.83828 | -120.17898 | 30061 ft | 457 kts | 294° |
| 2026-05-06 02:33 | 37.84474 | -120.20468 | 29628 ft | 454 kts | 294° |
| 2026-05-06 02:33 | 37.86674 | -120.29227 | 28206 ft | 442 kts | 294° |
| 2026-05-06 02:34 | 37.87575 | -120.32927 | 27599 ft | 440 kts | 289° |
| 2026-05-06 02:34 | 37.87868 | -120.36804 | 27058 ft | 447 kts | 270° |
| 2026-05-06 02:34 | 37.87376 | -120.40682 | 26536 ft | 446 kts | 262° |
| 2026-05-06 02:34 | 37.86710 | -120.44504 | 25961 ft | 443 kts | 261° |
| 2026-05-06 02:35 | 37.86207 | -120.47244 | 25544 ft | 440 kts | 261° |
| 2026-05-06 02:35 | 37.85693 | -120.50057 | 25131 ft | 438 kts | 261° |
| 2026-05-06 02:35 | 37.85072 | -120.53490 | 24584 ft | 435 kts | 261° |
| 2026-05-06 02:35 | 37.84418 | -120.57206 | 23992 ft | 433 kts | 261° |
| 2026-05-06 02:36 | 37.83781 | -120.60914 | 23360 ft | 431 kts | 261° |
| 2026-05-06 02:36 | 37.83152 | -120.64610 | 22711 ft | 427 kts | 261° |
| 2026-05-06 02:36 | 37.82531 | -120.68274 | 22100 ft | 423 kts | 261° |
| 2026-05-06 02:36 | 37.81983 | -120.71503 | 21582 ft | 419 kts | 261° |
| 2026-05-06 02:37 | 37.81372 | -120.75093 | 21003 ft | 414 kts | 261° |
| 2026-05-06 02:37 | 37.80776 | -120.78594 | 20445 ft | 410 kts | 261° |
| 2026-05-06 02:37 | 37.80180 | -120.82072 | 20227 ft | 397 kts | 261° |
| 2026-05-06 02:37 | 37.79604 | -120.85418 | 20051 ft | 384 kts | 261° |
| 2026-05-06 02:38 | 37.79038 | -120.88695 | 19594 ft | 380 kts | 261° |
| 2026-05-06 02:38 | 37.78474 | -120.91946 | 19148 ft | 377 kts | 261° |
| 2026-05-06 02:38 | 37.77912 | -120.95171 | 18687 ft | 374 kts | 261° |
| 2026-05-06 02:38 | 37.77357 | -120.98361 | 18194 ft | 371 kts | 261° |
| 2026-05-06 02:39 | 37.76801 | -121.01546 | 17677 ft | 368 kts | 261° |
| 2026-05-06 02:39 | 37.76249 | -121.04700 | 17136 ft | 366 kts | 261° |
| 2026-05-06 02:39 | 37.75705 | -121.07809 | 16678 ft | 359 kts | 261° |
| 2026-05-06 02:39 | 37.75169 | -121.10881 | 16256 ft | 355 kts | 261° |
| 2026-05-06 02:40 | 37.74641 | -121.13918 | 15830 ft | 351 kts | 261° |
| 2026-05-06 02:40 | 37.74118 | -121.16922 | 15430 ft | 348 kts | 261° |
| 2026-05-06 02:40 | 37.73600 | -121.19894 | 15024 ft | 345 kts | 261° |
| 2026-05-06 02:40 | 37.73085 | -121.22845 | 14621 ft | 342 kts | 261° |
| 2026-05-06 02:41 | 37.72574 | -121.25769 | 14222 ft | 340 kts | 261° |
| 2026-05-06 02:41 | 37.72064 | -121.28676 | 13826 ft | 338 kts | 261° |
| 2026-05-06 02:41 | 37.71558 | -121.31559 | 13387 ft | 336 kts | 261° |
| 2026-05-06 02:41 | 37.70983 | -121.34408 | 12966 ft | 335 kts | 256° |
| 2026-05-06 02:42 | 37.70261 | -121.37156 | 12570 ft | 333 kts | 253° |
| 2026-05-06 02:42 | 37.69533 | -121.39745 | 12196 ft | 331 kts | 253° |
| 2026-05-06 02:42 | 37.68759 | -121.42475 | 11805 ft | 329 kts | 253° |
| 2026-05-06 02:42 | 37.68069 | -121.44935 | 11460 ft | 327 kts | 253° |
| 2026-05-06 02:43 | 37.67330 | -121.47601 | 11081 ft | 326 kts | 254° |
| 2026-05-06 02:43 | 37.66590 | -121.50294 | 10695 ft | 325 kts | 254° |
| 2026-05-06 02:43 | 37.65854 | -121.52982 | 10292 ft | 322 kts | 254° |
| 2026-05-06 02:43 | 37.65136 | -121.55609 | 9904 ft | 311 kts | 253° |
| 2026-05-06 02:44 | 37.64452 | -121.58107 | 9600 ft | 297 kts | 254° |
| 2026-05-06 02:44 | 37.63786 | -121.60548 | 9197 ft | 287 kts | 254° |
| 2026-05-06 02:44 | 37.63153 | -121.62875 | 8846 ft | 279 kts | 253° |
| 2026-05-06 02:44 | 37.62528 | -121.65158 | 8496 ft | 271 kts | 253° |
| 2026-05-06 02:45 | 37.61927 | -121.67347 | 8218 ft | 257 kts | 253° |
| 2026-05-06 02:45 | 37.61448 | -121.69442 | 7872 ft | 242 kts | 266° |
| 2026-05-06 02:45 | 37.61327 | -121.71513 | 7626 ft | 234 kts | 269° |
| 2026-05-06 02:45 | 37.61216 | -121.73561 | 7345 ft | 233 kts | 269° |
| 2026-05-06 02:46 | 37.61093 | -121.75585 | 7080 ft | 228 kts | 268° |
| 2026-05-06 02:46 | 37.60966 | -121.77542 | 6810 ft | 224 kts | 268° |
| 2026-05-06 02:46 | 37.60837 | -121.79485 | 6539 ft | 221 kts | 268° |
| 2026-05-06 02:46 | 37.60709 | -121.81398 | 6268 ft | 219 kts | 268° |
| 2026-05-06 02:47 | 37.60667 | -121.83326 | 5992 ft | 221 kts | 272° |
| 2026-05-06 02:47 | 37.60688 | -121.85267 | 5731 ft | 221 kts | 272° |
| 2026-05-06 02:47 | 37.60709 | -121.87197 | 5461 ft | 218 kts | 272° |
| 2026-05-06 02:47 | 37.60725 | -121.89105 | 5217 ft | 216 kts | 272° |
| 2026-05-06 02:48 | 37.60739 | -121.90988 | 4956 ft | 214 kts | 271° |
| 2026-05-06 02:48 | 37.60751 | -121.92851 | 4693 ft | 211 kts | 271° |
| 2026-05-06 02:48 | 37.60760 | -121.94693 | 4450 ft | 207 kts | 270° |
| 2026-05-06 02:48 | 37.60732 | -121.96163 | 4229 ft | 205 kts | 268° |
| 2026-05-06 02:49 | 37.60683 | -121.97933 | 4000 ft | 199 kts | 268° |
| 2026-05-06 02:49 | 37.60636 | -121.99656 | 3784 ft | 196 kts | 268° |
| 2026-05-06 02:49 | 37.60589 | -122.01339 | 3551 ft | 190 kts | 267° |
| 2026-05-06 02:49 | 37.60645 | -122.02964 | 3342 ft | 180 kts | 276° |
| 2026-05-06 02:50 | 37.60820 | -122.04474 | 3149 ft | 175 kts | 276° |
| 2026-05-06 02:50 | 37.61000 | -122.05996 | 2964 ft | 177 kts | 276° |
| 2026-05-06 02:50 | 37.61197 | -122.07523 | 2771 ft | 177 kts | 285° |
| 2026-05-06 02:50 | 37.61836 | -122.08840 | 2617 ft | 179 kts | 307° |
| 2026-05-06 02:51 | 37.62617 | -122.10043 | 2355 ft | 180 kts | 306° |
| 2026-05-06 02:51 | 37.63385 | -122.11218 | 2110 ft | 167 kts | 307° |
| 2026-05-06 02:51 | 37.64095 | -122.12293 | 1913 ft | 155 kts | 308° |
| 2026-05-06 02:51 | 37.64763 | -122.13301 | 1711 ft | 144 kts | 308° |
| 2026-05-06 02:52 | 37.65371 | -122.14218 | 1486 ft | 132 kts | 307° |
| 2026-05-06 02:52 | 37.65946 | -122.15086 | 1340 ft | 128 kts | 307° |
| 2026-05-06 02:52 | 37.66512 | -122.15941 | 1177 ft | 126 kts | 307° |
| 2026-05-06 02:52 | 37.67072 | -122.16786 | 995 ft | 128 kts | 308° |
| 2026-05-06 02:53 | 37.67641 | -122.17644 | 813 ft | 127 kts | 307° |
| 2026-05-06 02:53 | 37.68211 | -122.18503 | 659 ft | 130 kts | 307° |
| 2026-05-06 02:53 | 37.68793 | -122.19381 | 472 ft | 132 kts | 306° |
| 2026-05-06 02:53 | 37.69382 | -122.20266 | 295 ft | 130 kts | 307° |
| 2026-05-06 02:54 | 37.69950 | -122.21119 | 115 ft | 124 kts | 309° |
| 2026-05-06 02:54 | 37.70504 | -122.21954 | 32 ft | 125 kts | 305° |
| 2026-05-06 02:54 | 37.70988 | -122.22693 | 6 ft | 86 kts | 311° |
| 2026-05-06 02:54 | 37.71256 | -122.23052 | 10 ft | 35 kts | 330° |
| 2026-05-06 02:55 | 37.71411 | -122.23138 | 8 ft | 20 kts | 346° |
| 2026-05-06 02:55 | 37.71492 | -122.23093 | 8 ft | 14 kts | 89° |
| 2026-05-06 02:55 | 37.71446 | -122.22992 | 10 ft | 13 kts | 125° |
| 2026-05-06 02:55 | 37.71385 | -122.22906 | 8 ft | 13 kts | 130° |
| 2026-05-06 02:56 | 37.71327 | -122.22816 | 9 ft | 15 kts | 129° |
| 2026-05-06 02:56 | 37.71261 | -122.22712 | 8 ft | 15 kts | 129° |
| 2026-05-06 02:56 | 37.71194 | -122.22616 | 9 ft | 14 kts | 130° |
| 2026-05-06 02:56 | 37.71131 | -122.22521 | 8 ft | 14 kts | 130° |
| 2026-05-06 02:57 | 37.71071 | -122.22432 | 9 ft | 13 kts | 130° |
| 2026-05-06 02:57 | 37.71014 | -122.22345 | 8 ft | 13 kts | 130° |
| 2026-05-06 02:57 | 37.70958 | -122.22262 | 9 ft | 12 kts | 130° |
| 2026-05-06 02:57 | 37.70901 | -122.22177 | 8 ft | 14 kts | 130° |
| 2026-05-06 02:58 | 37.70832 | -122.22073 | 9 ft | 16 kts | 130° |
| 2026-05-06 02:58 | 37.70762 | -122.21968 | 8 ft | 15 kts | 130° |
| 2026-05-06 02:58 | 37.70695 | -122.21867 | 8 ft | 15 kts | 131° |
| 2026-05-06 02:58 | 37.70703 | -122.21771 | 9 ft | 13 kts | 42° |
| 2026-05-06 02:59 | 37.70772 | -122.21700 | 9 ft | 13 kts | 40° |
| 2026-05-06 02:59 | 37.70848 | -122.21618 | 8 ft | 16 kts | 40° |
| 2026-05-06 02:59 | 37.70942 | -122.21532 | 8 ft | 16 kts | 35° |
| 2026-05-06 02:59 | 37.70992 | -122.21485 | 9 ft | 12 kts | 37° |
| 2026-05-06 03:00 | 37.71064 | -122.21418 | 8 ft | 9 kts | 33° |
| 2026-05-06 03:00 | 37.71114 | -122.21373 | 8 ft | 8 kts | 37° |
| 2026-05-06 03:00 | 37.71150 | -122.21339 | 8 ft | 0 kts | 37° |
| 2026-05-06 03:00 | 37.71154 | -122.21334 | 8 ft | 2 kts | 37° |
| 2026-05-06 03:01 | 37.71157 | -122.21332 | 10 ft | 0 kts | 37° |